Time;durP1;ratioP1;P1;durP2;ratioP2;P2;SDS_P1;SDS_P2;PMS_P1;PMS_P2;Temp;Humidity;BMP_temperature;BMP_pressure;BME280_temperature;BME280_humidity;BME280_pressure;Samples;Min_cycle;Max_cycle;Signal;HPM_P1;HPM_P2
2021/01/02 00:01:16;;;;;;;;;;;;;;;21.40;26.65;98316.78;5120365;28;1967;-75
2021/01/02 00:03:48;;;;;;;;;;;;;;;21.85;26.35;98319.81;5120013;28;962;-76
2021/01/02 00:06:16;;;;;;;;;;;;;;;22.53;25.21;98331.59;5120322;28;915;-76
2021/01/02 00:08:42;;;;;;;;;;;;;;;22.74;25.06;98333.94;5120366;28;948;-76
2021/01/02 00:11:11;;;;;;;;;;;;;;;22.64;25.21;98335.00;5120607;28;622;-75
2021/01/02 00:14:00;;;;;;;;;;;;;;;22.34;25.59;98334.09;5120386;28;665;-75
2021/01/02 00:16:36;;;;;;;;;;;;;;;21.52;26.78;98335.13;5101262;28;1066;-75
2021/01/02 00:19:10;;;;;;;;;;;;;;;21.63;26.53;98335.69;5123591;28;882;-75
2021/01/02 00:21:56;;;;;;;;;;;;;;;21.84;26.70;98346.56;5124576;28;1905;-76
2021/01/02 00:24:38;;;;;;;;;;;;;;;22.28;25.69;98347.22;5116900;28;945;-76
2021/01/02 00:27:03;;;;;;;;;;;;;;;22.63;25.14;98344.72;5124431;28;614;-76
2021/01/02 00:29:42;;;;;;;;;;;;;;;22.57;25.44;98340.84;5124344;28;642;-76
2021/01/02 00:32:37;;;;;;;;;;;;;;;21.84;26.27;98335.22;5123369;28;881;-76
2021/01/02 00:35:05;;;;;;;;;;;;;;;21.39;26.84;98345.50;5086757;28;1142;-75
2021/01/02 00:37:43;;;;;;;;;;;;;;;21.18;27.06;98341.84;5124052;28;945;-75
2021/01/02 00:40:16;;;;;;;;;;;;;;;21.97;26.21;98343.06;5123471;28;658;-76
2021/01/02 00:42:44;;;;;;;;;;;;;;;22.24;25.94;98372.00;5124170;28;609;-76
2021/01/02 00:45:10;;;;;;;;;;;;;;;22.48;25.39;98355.63;5124290;28;610;-76
2021/01/02 00:47:36;;;;;;;;;;;;;;;22.46;24.93;98357.31;5124565;28;610;-76
2021/01/02 00:50:02;;;;;;;;;;;;;;;21.48;26.76;98352.19;5123730;28;957;-75
2021/01/02 00:52:50;;;;;;;;;;;;;;;21.59;26.59;98349.13;5123748;28;901;-76
2021/01/02 00:55:31;;;;;;;;;;;;;;;21.71;26.61;98358.97;5123234;28;1138;-76
2021/01/02 00:58:05;;;;;;;;;;;;;;;22.09;26.04;98345.19;5106530;28;1145;-75
2021/01/02 01:00:33;;;;;;;;;;;;;;;22.50;25.59;98358.03;5123509;28;1905;-76
2021/01/02 01:03:03;;;;;;;;;;;;;;;22.63;25.31;98356.06;5123081;28;1239;-76
2021/01/02 01:05:32;;;;;;;;;;;;;;;21.94;26.07;98350.38;5122443;28;944;-76
2021/01/02 01:07:58;;;;;;;;;;;;;;;21.77;26.32;98358.06;5123490;28;851;-74
2021/01/02 01:10:25;;;;;;;;;;;;;;;21.12;27.46;98365.41;5123517;28;877;-75
2021/01/02 01:12:54;;;;;;;;;;;;;;;22.06;26.10;98358.19;5123493;28;661;-75
2021/01/02 01:15:19;;;;;;;;;;;;;;;22.52;25.59;98366.88;5122782;28;1369;-76
2021/01/02 01:17:57;;;;;;;;;;;;;;;22.49;25.47;98368.59;5122757;28;988;-75
2021/01/02 01:20:22;;;;;;;;;;;;;;;21.61;26.64;98366.50;5123159;28;1901;-76
2021/01/02 01:23:10;;;;;;;;;;;;;;;21.82;26.34;98377.38;5122326;28;943;-76
2021/01/02 01:25:39;;;;;;;;;;;;;;;21.63;26.66;98375.34;5122955;28;606;-76
2021/01/02 01:28:05;;;;;;;;;;;;;;;21.70;26.67;98372.34;5122337;28;650;-75
2021/01/02 01:30:32;;;;;;;;;;;;;;;22.08;26.19;98377.63;5122527;28;684;-76
2021/01/02 01:32:59;;;;;;;;;;;;;;;22.35;25.83;98378.22;5122134;28;927;-75
2021/01/02 01:35:24;;;;;;;;;;;;;;;22.42;25.57;98373.63;5123039;28;889;-76
2021/01/02 01:37:50;;;;;;;;;;;;;;;22.49;25.69;98376.28;5122259;28;940;-76
2021/01/02 01:40:15;;;;;;;;;;;;;;;21.75;26.50;98374.66;5122229;28;1965;-75
2021/01/02 01:42:41;;;;;;;;;;;;;;;21.21;27.40;98388.28;5122386;28;653;-75
2021/01/02 01:45:12;;;;;;;;;;;;;;;21.45;27.11;98387.03;5122827;28;583;-76
2021/01/02 01:47:41;;;;;;;;;;;;;;;21.99;26.34;98388.75;5122683;28;855;-76
2021/01/02 01:50:14;;;;;;;;;;;;;;;22.42;25.84;98384.94;5122558;28;888;-75
2021/01/02 01:52:52;;;;;;;;;;;;;;;22.74;25.34;98398.34;5122891;28;851;-75
2021/01/02 01:55:18;;;;;;;;;;;;;;;22.18;25.78;98390.78;5122679;27;669;-75
2021/01/02 01:57:43;;;;;;;;;;;;;;;21.63;26.43;98400.81;5122763;28;614;-75
2021/01/02 02:00:10;;;;;;;;;;;;;;;21.42;26.69;98401.25;5121622;28;880;-75
2021/01/02 02:02:44;;;;;;;;;;;;;;;21.65;26.62;98401.19;5121626;28;1976;-75
2021/01/02 02:05:10;;;;;;;;;;;;;;;21.65;26.87;98394.72;5122472;28;947;-75
2021/01/02 02:07:46;;;;;;;;;;;;;;;21.46;27.23;98393.50;5122612;28;645;-74
2021/01/02 02:10:41;;;;;;;;;;;;;;;21.31;27.35;98399.44;5121794;28;689;-76
2021/01/02 02:13:19;;;;;;;;;;;;;;;21.15;27.44;98402.13;5113118;28;1283;-76
2021/01/02 02:15:54;;;;;;;;;;;;;;;21.32;27.32;98389.69;5122058;28;872;-75
2021/01/02 02:18:20;;;;;;;;;;;;;;;21.44;27.17;98398.78;5121688;28;989;-76
2021/01/02 02:20:46;;;;;;;;;;;;;;;21.30;27.35;98397.84;5122136;28;1902;-75
2021/01/02 02:23:13;;;;;;;;;;;;;;;22.03;26.30;98397.97;5122239;28;689;-75
2021/01/02 02:25:45;;;;;;;;;;;;;;;22.41;25.40;98398.34;5121449;28;729;-76
2021/01/02 02:28:12;;;;;;;;;;;;;;;22.65;25.46;98403.88;5121953;28;673;-76
2021/01/02 02:30:38;;;;;;;;;;;;;;;21.88;26.18;98402.34;5121087;28;900;-75
2021/01/02 02:33:05;;;;;;;;;;;;;;;21.57;26.69;98394.09;5121010;28;931;-76
2021/01/02 02:35:31;;;;;;;;;;;;;;;20.59;28.57;98399.06;5121511;28;869;-76
2021/01/02 02:37:56;;;;;;;;;;;;;;;22.12;26.24;98388.88;5121134;28;697;-75
2021/01/02 02:40:23;;;;;;;;;;;;;;;22.53;25.60;98391.16;5121636;28;1898;-76
2021/01/02 02:42:55;;;;;;;;;;;;;;;22.95;24.71;98405.53;5121749;28;951;-76
2021/01/02 02:45:21;;;;;;;;;;;;;;;22.71;24.87;98397.22;5120795;28;887;-75
2021/01/02 02:47:47;;;;;;;;;;;;;;;21.53;26.64;98390.50;5120921;28;1077;-76
2021/01/02 02:50:20;;;;;;;;;;;;;;;20.84;27.64;98393.00;5121735;28;663;-76
2021/01/02 02:52:47;;;;;;;;;;;;;;;21.07;27.60;98395.78;5121590;28;713;-75
2021/01/02 02:55:12;;;;;;;;;;;;;;;22.10;26.26;98386.47;5120868;28;666;-76
2021/01/02 02:57:41;;;;;;;;;;;;;;;22.30;26.05;98384.41;5121762;28;780;-75
2021/01/02 03:00:07;;;;;;;;;;;;;;;22.67;25.33;98385.16;5120578;28;939;-75
2021/01/02 03:02:32;;;;;;;;;;;;;;;22.64;25.17;98386.06;5121217;28;1909;-76
2021/01/02 03:04:59;;;;;;;;;;;;;;;21.43;26.65;98380.19;5121358;28;669;-75
2021/01/02 03:07:24;;;;;;;;;;;;;;;21.55;26.97;98385.22;5121510;28;649;-75
2021/01/02 03:09:49;;;;;;;;;;;;;;;21.43;26.96;98394.34;5121290;28;614;-76
2021/01/02 03:12:15;;;;;;;;;;;;;;;21.95;26.40;98385.97;5121218;28;925;-75
2021/01/02 03:14:40;;;;;;;;;;;;;;;22.30;25.92;98387.25;5120912;28;888;-76
2021/01/02 03:17:06;;;;;;;;;;;;;;;22.71;25.06;98385.84;5120899;28;966;-75
2021/01/02 03:19:31;;;;;;;;;;;;;;;22.74;25.36;98390.66;5121011;28;646;-74
2021/01/02 03:21:57;;;;;;;;;;;;;;;21.91;26.21;98395.78;5121003;28;1922;-76
2021/01/02 03:24:22;;;;;;;;;;;;;;;21.18;27.24;98401.25;5121057;28;625;-75
2021/01/02 03:26:47;;;;;;;;;;;;;;;21.28;26.89;98394.59;5120619;28;1082;-76
2021/01/02 03:29:13;;;;;;;;;;;;;;;21.65;26.96;98397.56;5120739;28;939;-75
2021/01/02 03:31:38;;;;;;;;;;;;;;;22.32;25.88;98386.78;5120919;28;904;-76
2021/01/02 03:34:04;;;;;;;;;;;;;;;22.44;25.62;98388.16;5120689;28;690;-76
2021/01/02 03:36:29;;;;;;;;;;;;;;;22.77;25.17;98389.75;5120849;28;862;-75
2021/01/02 03:38:55;;;;;;;;;;;;;;;22.45;25.52;98395.41;5120356;28;919;-76
2021/01/02 03:41:21;;;;;;;;;;;;;;;21.14;27.48;98400.53;5120435;28;1945;-75
2021/01/02 03:43:47;;;;;;;;;;;;;;;21.33;27.24;98396.97;5120743;28;1109;-76
2021/01/02 03:46:12;;;;;;;;;;;;;;;21.70;26.81;98397.84;5120741;28;705;-76
2021/01/02 03:48:37;;;;;;;;;;;;;;;22.36;25.91;98408.16;5120548;28;697;-76
2021/01/02 03:51:03;;;;;;;;;;;;;;;22.51;25.48;98405.00;5120038;28;709;-76
2021/01/02 03:53:29;;;;;;;;;;;;;;;22.88;24.82;98401.66;5119434;28;1047;-76
2021/01/02 03:55:54;;;;;;;;;;;;;;;21.36;26.77;98409.47;5120689;28;886;-76
2021/01/02 03:58:20;;;;;;;;;;;;;;;21.29;27.09;98418.84;5120570;28;820;-76
2021/01/02 04:00:45;;;;;;;;;;;;;;;21.46;26.86;98418.97;5120624;28;1910;-76
2021/01/02 04:03:14;;;;;;;;;;;;;;;22.01;26.49;98421.06;5120492;28;448;-76
2021/01/02 04:05:43;;;;;;;;;;;;;;;22.66;25.00;98414.75;5120749;28;650;-76
2021/01/02 04:08:09;;;;;;;;;;;;;;;23.04;24.58;98414.25;5120543;28;666;-76
2021/01/02 04:10:35;;;;;;;;;;;;;;;21.53;26.48;98427.31;5120597;28;670;-76
2021/01/02 04:13:00;;;;;;;;;;;;;;;21.60;26.52;98421.50;5120279;28;1039;-76
2021/01/02 04:15:25;;;;;;;;;;;;;;;21.39;27.04;98433.25;5120218;28;839;-76
2021/01/02 04:17:51;;;;;;;;;;;;;;;21.39;27.24;98439.72;5120218;28;975;-76
2021/01/02 04:20:16;;;;;;;;;;;;;;;22.00;26.45;98427.97;5120329;28;702;-75
2021/01/02 04:22:43;;;;;;;;;;;;;;;22.42;25.61;98430.31;5120344;28;1972;-75
2021/01/02 04:25:08;;;;;;;;;;;;;;;22.50;25.41;98431.75;5119569;28;627;-76
2021/01/02 04:27:34;;;;;;;;;;;;;;;22.23;25.58;98441.28;5119969;28;966;-76
2021/01/02 04:29:59;;;;;;;;;;;;;;;21.57;26.52;98450.72;5120109;28;856;-76
2021/01/02 04:32:25;;;;;;;;;;;;;;;21.10;27.76;98445.06;5120251;28;984;-76
2021/01/02 04:34:50;;;;;;;;;;;;;;;21.79;26.41;98446.22;5120039;28;686;-76
2021/01/02 04:37:15;;;;;;;;;;;;;;;22.10;26.19;98457.31;5120450;28;744;-76
2021/01/02 04:39:41;;;;;;;;;;;;;;;22.33;25.77;98453.63;5120108;28;797;-76
2021/01/02 04:42:06;;;;;;;;;;;;;;;22.77;25.23;98452.16;5119713;28;1966;-76
2021/01/02 04:44:32;;;;;;;;;;;;;;;21.72;26.37;98466.19;5120083;28;1030;-75
2021/01/02 04:46:57;;;;;;;;;;;;;;;21.73;26.51;98453.63;5120079;28;606;-76
2021/01/02 04:49:23;;;;;;;;;;;;;;;21.82;26.36;98456.69;5120007;28;649;-76
2021/01/02 04:51:48;;;;;;;;;;;;;;;21.77;26.77;98451.53;5120211;28;672;-76
2021/01/02 04:54:14;;;;;;;;;;;;;;;22.34;25.84;98453.19;5120037;28;1024;-76
2021/01/02 04:56:39;;;;;;;;;;;;;;;22.64;25.19;98448.44;5119014;28;892;-76
2021/01/02 04:59:08;;;;;;;;;;;;;;;22.62;25.22;98448.06;5120049;28;832;-76
2021/01/02 05:01:35;;;;;;;;;;;;;;;22.56;25.22;98447.00;5119454;28;1905;-76
2021/01/02 05:04:00;;;;;;;;;;;;;;;21.73;26.61;98464.97;5122064;28;710;-76
2021/01/02 05:06:26;;;;;;;;;;;;;;;21.88;26.35;98448.47;5123817;28;678;-76
2021/01/02 05:08:51;;;;;;;;;;;;;;;20.98;27.94;98465.47;5123629;27;665;-75
2021/01/02 05:11:17;;;;;;;;;;;;;;;22.03;26.62;98463.16;5123409;28;815;-75
2021/01/02 05:13:42;;;;;;;;;;;;;;;22.38;25.62;98472.13;5123126;28;896;-75
2021/01/02 05:16:26;;;;;;;;;;;;;;;22.72;25.34;98472.56;5123503;28;982;-75
2021/01/02 05:18:58;;;;;;;;;;;;;;;22.91;24.81;98481.47;5122791;28;1163;-75
2021/01/02 05:21:25;;;;;;;;;;;;;;;22.29;25.62;98487.72;5123375;28;1967;-75
2021/01/02 05:24:06;;;;;;;;;;;;;;;21.17;27.28;98490.22;5123224;28;702;-75
2021/01/02 05:26:39;;;;;;;;;;;;;;;21.23;27.17;98490.53;5123302;28;1104;-74
2021/01/02 05:29:16;;;;;;;;;;;;;;;21.89;26.67;98494.59;5122890;28;897;-75
2021/01/02 05:31:42;;;;;;;;;;;;;;;22.51;25.44;98495.75;5123209;28;629;-74
2021/01/02 05:34:08;;;;;;;;;;;;;;;22.55;25.60;98502.13;5122633;28;690;-74
2021/01/02 05:36:34;;;;;;;;;;;;;;;22.57;25.33;98500.44;5123147;28;590;-76
2021/01/02 05:38:59;;;;;;;;;;;;;;;22.00;26.03;98503.69;5122863;28;1092;-76
2021/01/02 05:41:25;;;;;;;;;;;;;;;21.36;27.16;98510.56;5121907;28;1961;-75
2021/01/02 05:43:50;;;;;;;;;;;;;;;21.57;26.63;98518.66;5122697;28;939;-75
2021/01/02 05:46:18;;;;;;;;;;;;;;;21.70;26.84;98519.63;5122282;28;638;-75
2021/01/02 05:48:43;;;;;;;;;;;;;;;22.02;26.44;98518.19;5122751;28;602;-75
2021/01/02 05:51:09;;;;;;;;;;;;;;;22.23;25.94;98514.97;5122769;28;685;-75
2021/01/02 05:53:34;;;;;;;;;;;;;;;22.46;25.69;98521.78;5121824;28;843;-74
2021/01/02 05:56:04;;;;;;;;;;;;;;;22.55;25.44;98524.81;5122360;28;885;-76
2021/01/02 05:58:39;;;;;;;;;;;;;;;21.74;26.74;98525.22;5122556;28;1068;-76
2021/01/02 06:01:08;;;;;;;;;;;;;;;20.98;27.70;98527.72;5123226;28;1905;-76
2021/01/02 06:03:35;;;;;;;;;;;;;;;21.58;27.20;98531.59;5121909;28;606;-76
2021/01/02 06:06:04;;;;;;;;;;;;;;;21.52;26.99;98533.31;5122737;28;645;-76
2021/01/02 06:08:50;;;;;;;;;;;;;;;21.40;27.36;98536.75;5122065;28;867;-74
2021/01/02 06:11:16;;;;;;;;;;;;;;;21.92;26.54;98536.25;5121777;28;1056;-73
2021/01/02 06:13:45;;;;;;;;;;;;;;;22.40;25.91;98540.56;5121801;28;658;-74
2021/01/02 06:16:11;;;;;;;;;;;;;;;22.44;25.76;98535.59;5122105;28;705;-74
2021/01/02 06:18:38;;;;;;;;;;;;;;;22.51;25.70;98536.25;5122342;28;1091;-80
2021/01/02 06:21:05;;;;;;;;;;;;;;;22.72;25.19;98532.13;5123243;28;1983;-78
2021/01/02 06:23:30;;;;;;;;;;;;;;;22.30;25.73;98546.00;5121293;28;851;-69
2021/01/02 06:25:56;;;;;;;;;;;;;;;21.54;27.34;98542.19;5122037;28;1257;-77
2021/01/02 06:28:21;;;;;;;;;;;;;;;21.29;27.49;98548.22;5121347;28;913;-74
2021/01/02 06:30:47;;;;;;;;;;;;;;;21.60;27.08;98551.78;5104026;28;924;-77
2021/01/02 06:33:13;;;;;;;;;;;;;;;21.68;27.14;98553.25;5102574;28;656;-75
2021/01/02 06:35:39;;;;;;;;;;;;;;;21.65;27.18;98553.31;5100823;28;864;-76
2021/01/02 06:38:05;;;;;;;;;;;;;;;21.51;27.21;98552.34;5101147;28;894;-76
2021/01/02 06:40:33;;;;;;;;;;;;;;;21.52;27.05;98551.13;5101777;28;1910;-76
2021/01/02 06:43:02;;;;;;;;;;;;;;;21.69;27.13;98554.84;5100614;28;614;-77
2021/01/02 06:45:37;;;;;;;;;;;;;;;21.51;27.40;98554.38;5097665;28;753;-74
2021/01/02 06:48:24;;;;;;;;;;;;;;;21.48;27.17;98549.56;5101247;28;638;-74
2021/01/02 06:50:53;;;;;;;;;;;;;;;21.46;27.20;98563.38;5096782;28;958;-77
2021/01/02 06:53:19;;;;;;;;;;;;;;;21.31;27.45;98566.44;5100495;28;950;-76
2021/01/02 06:56:02;;;;;;;;;;;;;;;21.50;27.23;98558.41;5101063;28;622;-75
2021/01/02 06:58:35;;;;;;;;;;;;;;;22.05;26.28;98554.19;5101070;28;661;-76
2021/01/02 07:01:03;;;;;;;;;;;;;;;22.37;26.06;98559.22;5100752;28;1971;-75
2021/01/02 07:03:41;;;;;;;;;;;;;;;22.42;25.64;98570.06;5100210;28;831;-75
2021/01/02 07:06:26;;;;;;;;;;;;;;;21.94;26.23;98570.59;5099875;28;990;-77
2021/01/02 07:08:54;;;;;;;;;;;;;;;21.63;26.75;98579.25;5100651;28;937;-76
2021/01/02 07:11:20;;;;;;;;;;;;;;;21.58;26.93;98576.91;5104061;28;850;-76
2021/01/02 07:13:45;;;;;;;;;;;;;;;21.19;27.55;98581.16;5121107;28;693;-76
2021/01/02 07:16:29;;;;;;;;;;;;;;;21.47;27.44;98579.13;5121426;28;645;-75
2021/01/02 07:18:55;;;;;;;;;;;;;;;22.34;26.04;98588.47;5120954;28;1129;-76
2021/01/02 07:21:33;;;;;;;;;;;;;;;22.71;25.21;98584.44;5120517;28;1899;-75
2021/01/02 07:24:17;;;;;;;;;;;;;;;21.85;26.20;98586.09;5120809;28;962;-76
2021/01/02 07:26:43;;;;;;;;;;;;;;;21.22;27.38;98594.44;5120559;28;622;-75
2021/01/02 07:29:16;;;;;;;;;;;;;;;20.85;27.85;98594.59;5120925;28;627;-74
2021/01/02 07:31:41;;;;;;;;;;;;;;;21.30;27.53;98590.31;5120895;28;665;-75
2021/01/02 07:34:15;;;;;;;;;;;;;;;22.04;26.47;98592.25;5120995;28;634;-74
2021/01/02 07:36:40;;;;;;;;;;;;;;;22.57;25.57;98591.19;5120366;28;1072;-76
2021/01/02 07:39:06;;;;;;;;;;;;;;;22.35;25.73;98596.53;5120379;28;937;-76
2021/01/02 07:41:31;;;;;;;;;;;;;;;21.78;26.61;98600.41;5120549;28;1894;-74
2021/01/02 07:43:57;;;;;;;;;;;;;;;21.46;26.83;98603.00;5119905;28;673;-74
2021/01/02 07:46:22;;;;;;;;;;;;;;;21.42;27.01;98603.06;5120049;28;1399;-75
2021/01/02 07:48:53;;;;;;;;;;;;;;;21.58;26.76;98613.72;5119894;28;627;-75
2021/01/02 07:51:19;;;;;;;;;;;;;;;21.54;26.93;98604.47;5120871;28;980;-75
2021/01/02 07:53:50;;;;;;;;;;;;;;;21.39;27.39;98608.75;5119175;28;907;-76
2021/01/02 07:56:36;;;;;;;;;;;;;;;22.02;26.58;98609.69;5120602;28;872;-76
2021/01/02 07:59:21;;;;;;;;;;;;;;;22.55;25.63;98604.22;5120221;28;997;-76
2021/01/02 08:01:50;;;;;;;;;;;;;;;22.61;25.62;98613.81;5120435;28;1991;-76
2021/01/02 08:04:16;;;;;;;;;;;;;;;22.19;25.77;98616.28;5119870;28;619;-76
2021/01/02 08:06:51;;;;;;;;;;;;;;;21.29;27.23;98610.50;5120049;28;930;-77
2021/01/02 08:09:17;;;;;;;;;;;;;;;21.60;26.91;98619.72;5120297;28;849;-76
2021/01/02 08:11:53;;;;;;;;;;;;;;;21.37;27.25;98611.25;5120283;28;896;-75
2021/01/02 08:14:19;;;;;;;;;;;;;;;21.73;26.67;98615.06;5120540;28;658;-76
2021/01/02 08:16:58;;;;;;;;;;;;;;;22.09;26.07;98615.22;5119385;28;1111;-76
2021/01/02 08:19:24;;;;;;;;;;;;;;;22.44;25.92;98620.69;5119594;28;590;-75
2021/01/02 08:21:49;;;;;;;;;;;;;;;22.45;25.80;98616.59;5119614;28;1966;-76
2021/01/02 08:24:15;;;;;;;;;;;;;;;21.24;27.44;98619.47;5120125;28;815;-76
2021/01/02 08:26:42;;;;;;;;;;;;;;;21.13;27.59;98619.63;5119258;28;1419;-75
2021/01/02 08:29:07;;;;;;;;;;;;;;;20.91;27.97;98624.81;5102668;28;623;-74
2021/01/02 08:31:33;;;;;;;;;;;;;;;21.76;27.00;98622.72;5119095;28;844;-74
2021/01/02 08:33:59;;;;;;;;;;;;;;;22.51;25.77;98627.00;5119424;28;677;-74
2021/01/02 08:36:24;;;;;;;;;;;;;;;22.68;25.46;98625.00;5114132;28;917;-74
2021/01/02 08:38:59;;;;;;;;;;;;;;;22.37;25.69;98630.09;5102225;28;929;-73
2021/01/02 08:41:25;;;;;;;;;;;;;;;22.01;26.27;98632.78;5103797;28;1878;-75
2021/01/02 08:43:51;;;;;;;;;;;;;;;21.54;26.86;98632.78;5102930;28;709;-75
2021/01/02 08:46:21;;;;;;;;;;;;;;;21.56;26.84;98627.50;5103255;28;611;-77
2021/01/02 08:48:46;;;;;;;;;;;;;;;21.56;27.00;98630.34;5103549;28;662;-76
2021/01/02 08:51:27;;;;;;;;;;;;;;;21.58;26.96;98639.19;5103182;28;947;-75
2021/01/02 08:53:52;;;;;;;;;;;;;;;21.51;27.14;98628.00;5103216;28;831;-75
2021/01/02 08:56:21;;;;;;;;;;;;;;;21.35;27.52;98633.50;5103221;28;1044;-73
2021/01/02 08:58:47;;;;;;;;;;;;;;;21.46;27.28;98636.97;5103229;28;708;-75
2021/01/02 09:01:12;;;;;;;;;;;;;;;21.81;26.95;98633.56;5103218;28;1910;-74
2021/01/02 09:03:38;;;;;;;;;;;;;;;22.14;26.14;98635.84;5103384;28;773;-76
2021/01/02 09:06:19;;;;;;;;;;;;;;;22.38;25.86;98622.41;5102968;28;954;-76
2021/01/02 09:08:45;;;;;;;;;;;;;;;22.66;25.59;98627.50;5102818;28;843;-76
2021/01/02 09:11:10;;;;;;;;;;;;;;;22.10;25.95;98621.69;5103293;28;851;-74
2021/01/02 09:13:36;;;;;;;;;;;;;;;21.51;26.81;98628.00;5103469;28;686;-75
2021/01/02 09:16:02;;;;;;;;;;;;;;;21.04;27.39;98622.22;5103409;28;728;-76
2021/01/02 09:18:27;;;;;;;;;;;;;;;21.56;27.12;98624.69;5101564;28;1618;-74
2021/01/02 09:20:52;;;;;;;;;;;;;;;21.55;26.98;98623.88;5102747;28;1914;-76
2021/01/02 09:23:30;;;;;;;;;;;;;;;21.81;27.15;98627.06;5102501;28;942;-73
2021/01/02 09:25:56;;;;;;;;;;;;;;;22.23;26.30;98617.03;5102916;28;976;-75
2021/01/02 09:28:21;;;;;;;;;;;;;;;22.47;25.91;98619.78;5102752;28;725;-76
2021/01/02 09:30:47;;;;;;;;;;;;;;;22.21;26.01;98613.00;5102822;28;693;-74
2021/01/02 09:33:13;;;;;;;;;;;;;;;21.87;26.66;98610.41;5102489;28;627;-74
2021/01/02 09:35:42;;;;;;;;;;;;;;;21.41;27.19;98612.00;5102425;28;959;-74
2021/01/02 09:38:07;;;;;;;;;;;;;;;21.27;27.63;98605.28;5102203;28;859;-74
2021/01/02 09:40:36;;;;;;;;;;;;;;;21.73;27.27;98605.78;5102297;28;1967;-73
2021/01/02 09:43:02;;;;;;;;;;;;;;;22.27;26.26;98600.72;5102281;28;619;-74
2021/01/02 09:45:28;;;;;;;;;;;;;;;22.66;25.52;98604.00;5102462;28;666;-76
2021/01/02 09:47:53;;;;;;;;;;;;;;;22.31;26.05;98595.78;5102395;28;546;-75
2021/01/02 09:50:19;;;;;;;;;;;;;;;21.52;27.17;98589.97;5102021;28;931;-76
2021/01/02 09:52:44;;;;;;;;;;;;;;;21.19;27.67;98589.66;5101611;28;878;-76
2021/01/02 09:55:10;;;;;;;;;;;;;;;21.45;27.50;98584.38;5101563;28;841;-74
2021/01/02 09:57:36;;;;;;;;;;;;;;;21.69;26.89;98576.72;5110855;28;824;-75
2021/01/02 10:00:02;;;;;;;;;;;;;;;21.97;26.88;98578.22;5121893;28;819;-74
2021/01/02 10:02:37;;;;;;;;;;;;;;;22.40;26.02;98571.75;5122297;28;1960;-76
2021/01/02 10:05:03;;;;;;;;;;;;;;;22.67;25.74;98555.34;5122475;28;1020;-76
2021/01/02 10:07:28;;;;;;;;;;;;;;;21.47;27.36;98560.09;5121935;28;878;-74
2021/01/02 10:09:54;;;;;;;;;;;;;;;21.41;27.51;98555.38;5122218;28;956;-75
2021/01/02 10:12:19;;;;;;;;;;;;;;;21.26;27.71;98552.72;5122092;28;646;-75
2021/01/02 10:14:45;;;;;;;;;;;;;;;21.57;27.27;98549.81;5122226;28;685;-75
2021/01/02 10:17:11;;;;;;;;;;;;;;;21.59;27.26;98556.63;5121924;28;1230;-75
2021/01/02 10:19:40;;;;;;;;;;;;;;;22.04;26.77;98546.91;5121318;28;976;-76
2021/01/02 10:22:05;;;;;;;;;;;;;;;22.28;26.33;98539.97;5121096;28;1905;-76
2021/01/02 10:24:31;;;;;;;;;;;;;;;22.37;26.16;98542.22;5121906;28;1051;-74
2021/01/02 10:26:56;;;;;;;;;;;;;;;21.92;26.51;98534.19;5122258;28;566;-77
2021/01/02 10:29:22;;;;;;;;;;;;;;;21.76;27.00;98539.75;5121365;28;681;-76
2021/01/02 10:31:47;;;;;;;;;;;;;;;21.73;26.88;98532.94;5121825;28;969;-76
2021/01/02 10:34:13;;;;;;;;;;;;;;;21.14;27.69;98539.19;5121645;28;825;-76
2021/01/02 10:36:39;;;;;;;;;;;;;;;21.11;28.09;98525.91;5120823;28;869;-74
2021/01/02 10:39:04;;;;;;;;;;;;;;;21.41;27.50;98524.22;5121865;28;848;-76
2021/01/02 10:41:30;;;;;;;;;;;;;;;21.73;27.17;98526.47;5121871;28;1965;-76
2021/01/02 10:43:55;;;;;;;;;;;;;;;22.18;26.50;98521.16;5121409;28;690;-75
2021/01/02 10:46:21;;;;;;;;;;;;;;;22.32;26.28;98522.88;5121602;28;530;-76
2021/01/02 10:48:46;;;;;;;;;;;;;;;22.56;25.63;98515.06;5121431;28;843;-76
2021/01/02 10:51:16;;;;;;;;;;;;;;;21.21;27.73;98519.25;5121219;28;873;-74
2021/01/02 10:53:42;;;;;;;;;;;;;;;20.95;28.15;98511.63;5121275;28;1016;-76
2021/01/02 10:56:11;;;;;;;;;;;;;;;21.51;27.22;98514.75;5121622;27;590;-75
2021/01/02 10:58:36;;;;;;;;;;;;;;;21.69;27.34;98512.38;5120537;28;661;-75
2021/01/02 11:01:03;;;;;;;;;;;;;;;21.46;27.57;98518.06;5120784;28;1902;-74
2021/01/02 11:03:29;;;;;;;;;;;;;;;21.07;27.92;98519.50;5120107;28;850;-75
2021/01/02 11:05:55;;;;;;;;;;;;;;;21.94;26.86;98525.25;5120963;28;927;-75
2021/01/02 11:08:20;;;;;;;;;;;;;;;22.41;26.18;98520.25;5120922;28;957;-75
2021/01/02 11:10:46;;;;;;;;;;;;;;;22.44;26.06;98512.94;5121285;28;690;-76
2021/01/02 11:13:11;;;;;;;;;;;;;;;21.95;26.67;98518.34;5120980;28;714;-75
2021/01/02 11:15:36;;;;;;;;;;;;;;;21.39;27.49;98506.84;5121112;28;626;-75
2021/01/02 11:18:02;;;;;;;;;;;;;;;21.40;27.33;98514.09;5120306;28;1089;-76
2021/01/02 11:20:27;;;;;;;;;;;;;;;21.59;27.10;98516.19;5120893;28;919;-75
2021/01/02 11:22:53;;;;;;;;;;;;;;;21.51;27.41;98514.75;5120803;28;1910;-75
2021/01/02 11:25:18;;;;;;;;;;;;;;;21.64;27.25;98514.91;5120839;28;602;-75
2021/01/02 11:27:44;;;;;;;;;;;;;;;21.89;26.98;98508.75;5120916;28;610;-76
2021/01/02 11:30:10;;;;;;;;;;;;;;;22.42;26.01;98506.88;5120773;28;615;-75
2021/01/02 11:32:35;;;;;;;;;;;;;;;22.51;26.00;98501.41;5120453;28;950;-75
2021/01/02 11:35:00;;;;;;;;;;;;;;;22.02;26.44;98495.53;5120281;28;922;-74
2021/01/02 11:37:26;;;;;;;;;;;;;;;21.59;27.22;98504.88;5120480;28;935;-75
2021/01/02 11:39:51;;;;;;;;;;;;;;;21.10;27.95;98510.16;5120527;28;662;-74
2021/01/02 11:42:17;;;;;;;;;;;;;;;21.33;27.65;98504.53;5119886;28;1967;-76
2021/01/02 11:44:52;;;;;;;;;;;;;;;21.37;27.58;98512.16;5120342;28;657;-76
2021/01/02 11:47:17;;;;;;;;;;;;;;;22.02;26.86;98502.03;5120259;28;1109;-76
2021/01/02 11:49:43;;;;;;;;;;;;;;;22.41;26.02;98508.13;5120306;28;823;-76
2021/01/02 11:52:08;;;;;;;;;;;;;;;22.67;25.45;98501.44;5120753;28;972;-74
2021/01/02 11:54:34;;;;;;;;;;;;;;;22.54;25.75;98495.66;5120313;28;653;-74
2021/01/02 11:57:00;;;;;;;;;;;;;;;21.53;27.32;98501.75;5120223;28;733;-76
2021/01/02 11:59:25;;;;;;;;;;;;;;;21.28;27.53;98496.50;5120997;28;670;-76
2021/01/02 12:01:52;;;;;;;;;;;;;;;21.36;27.41;98502.06;5119950;28;1905;-74
2021/01/02 12:04:18;;;;;;;;;;;;;;;21.49;27.33;98500.19;5119705;28;884;-75
2021/01/02 12:06:43;;;;;;;;;;;;;;;21.68;27.07;98507.94;5120044;28;846;-74
2021/01/02 12:09:09;;;;;;;;;;;;;;;22.05;26.56;98508.84;5120323;28;644;-74
2021/01/02 12:11:47;;;;;;;;;;;;;;;22.47;26.00;98506.34;5120316;28;672;-75
2021/01/02 12:14:13;;;;;;;;;;;;;;;21.97;26.61;98513.06;5123875;28;593;-76
2021/01/02 12:16:39;;;;;;;;;;;;;;;21.69;26.98;98508.75;5124285;28;1001;-76
2021/01/02 12:19:05;;;;;;;;;;;;;;;21.79;26.88;98508.53;5124249;28;784;-76
2021/01/02 12:21:31;;;;;;;;;;;;;;;21.36;27.52;98507.72;5124361;28;1934;-75
2021/01/02 12:23:57;;;;;;;;;;;;;;;21.67;27.32;98506.34;5124536;28;650;-75
2021/01/02 12:26:22;;;;;;;;;;;;;;;22.17;26.62;98511.03;5124106;28;688;-74
2021/01/02 12:28:48;;;;;;;;;;;;;;;22.48;25.88;98502.28;5124172;28;674;-76
2021/01/02 12:31:24;;;;;;;;;;;;;;;22.50;25.67;98499.81;5124087;28;844;-75
2021/01/02 12:33:49;;;;;;;;;;;;;;;21.79;26.85;98510.56;5123906;28;895;-75
2021/01/02 12:36:15;;;;;;;;;;;;;;;20.92;27.95;98512.47;5123923;28;800;-76
2021/01/02 12:38:41;;;;;;;;;;;;;;;21.08;27.81;98521.09;5123925;28;698;-75
2021/01/02 12:41:12;;;;;;;;;;;;;;;21.35;27.47;98517.44;5124097;28;1909;-75
2021/01/02 12:43:38;;;;;;;;;;;;;;;21.47;27.48;98514.00;5124149;28;630;-76
2021/01/02 12:46:04;;;;;;;;;;;;;;;21.55;27.42;98521.13;5123159;28;891;-76
2021/01/02 12:48:29;;;;;;;;;;;;;;;21.45;27.41;98527.78;5123533;28;925;-76
2021/01/02 12:50:54;;;;;;;;;;;;;;;21.74;26.96;98528.84;5124191;28;1082;-75
2021/01/02 12:53:40;;;;;;;;;;;;;;;22.29;26.41;98530.22;5123800;28;665;-75
2021/01/02 12:56:06;;;;;;;;;;;;;;;22.66;25.69;98519.72;5123746;28;658;-75
2021/01/02 12:58:31;;;;;;;;;;;;;;;22.68;25.52;98528.56;5123507;28;653;-75
2021/01/02 13:00:57;;;;;;;;;;;;;;;21.59;26.95;98527.53;5123300;28;1969;-75
2021/01/02 13:03:23;;;;;;;;;;;;;;;20.97;28.02;98531.78;5123701;28;882;-74
2021/01/02 13:05:48;;;;;;;;;;;;;;;21.33;27.42;98532.81;5123340;28;923;-76
2021/01/02 13:08:13;;;;;;;;;;;;;;;21.55;27.48;98538.09;5123264;28;665;-74
2021/01/02 13:10:39;;;;;;;;;;;;;;;22.21;26.46;98537.28;5122491;28;789;-73